Terminal Aerodrome Forecast
Issued by NWS

Current Version | Previous Version | Text Only | Print | Product List | Glossary On
Versions: 1 2 3 4 5 6 7 8 9 10 11 12 13 14 15 16
000
FTUS41 KBOX 110539
TAFHYA
TAF
KHYA 110539Z 1106/1206 00000KT P6SM OVC017
     FM110900 14003KT 4SM BR OVC003
     FM111400 15005KT 3SM BR VCSH OVC008
     FM111800 18007KT P6SM -SHRA OVC012
     FM112100 19004KT 4SM BR VCSH OVC010
     FM120500 17003KT 3SM BR BKN008=

USA.gov is the U.S. government's official web portal to all federal, state and local government web resources and services.